• Join FlightAware (Why Join?)
  • Login
  • US Flag 
11:09PM EDT


 

Airport Tracker/Info


-or-


 

Live Flight TrackerFlight Track Log ✈ QXE2348 ✈ 02-Feb-2014 ✈ KSEA - KMSO

Flight Track Log - Related Links

Times and Time Zones

All times are in EST time to prevent confusion due to time zone crossing. See the QXE2348 flight status page for this flight to view local times or setup timezone preferences in your user account.

Time Position Orientation Groundspeed Altitude Reporting Facility
EST Latitude Longitude Course Direction KTS MPH feet Rate Location/Type
01:49PM 47.4167 -121.5247 90° East  Level FlightAware Approximate
01:50PM 47.4167 -121.3949 90° East  Level FlightAware Approximate
01:51PM 47.4167 -121.2650 90° East  Level FlightAware Approximate
01:52PM 47.4167 -121.1352 90° East  Level FlightAware Approximate
01:53PM 47.4167 -121.0054 90° East  Level FlightAware Approximate
01:54PM 47.4108 -120.8760 95° East  Level FlightAware Approximate
01:55PM 47.4036 -120.7466 95° East  Level FlightAware Approximate
01:56PM 47.4001 -120.6171 90° East  Level FlightAware Approximate
01:57PM 47.4001 -120.4873 90° East  Level FlightAware Approximate
01:58PM 47.3938 -120.3571 78° East  Level Estimated
01:59PM 47.3875 -120.2270 90° East  Level Estimated
02:00PM 47.3809 -120.0969 89° East  Level Estimated
02:01PM 47.3873 -119.9668 86° East  Level FlightAware Approximate
02:02PM 47.3935 -119.8366 86° East  Level FlightAware Approximate
02:03PM 47.3995 -119.7064 86° East  Level FlightAware Approximate
02:04PM 47.4054 -119.5762 86° East  Level FlightAware Approximate
02:05PM 47.4112 -119.4459 86° East  Level FlightAware Approximate
02:06PM 47.4168 -119.3157 86° East  Level FlightAware Approximate
02:07PM 47.4223 -119.1854 86° East  Level FlightAware Approximate
02:08PM 47.4276 -119.0550 87° East  Level FlightAware Approximate
02:09PM 47.4328 -118.9247 87° East  Level FlightAware Approximate
02:10PM 47.4378 -118.7942 87° East  Level FlightAware Approximate
02:11PM 47.4422 -118.6771 87° East  Level FlightAware Approximate
02:12PM 47.4464 -118.5600 87° East  Level FlightAware Approximate
02:13PM 47.4506 -118.4429 87° East  Level FlightAware Approximate
02:14PM 47.4546 -118.3258 87° East  Level FlightAware Approximate
02:15PM 47.4585 -118.2086 87° East  Level FlightAware Approximate
02:16PM 47.4623 -118.0914 87° East  Level FlightAware Approximate
02:17PM 47.4659 -117.9742 87° East  Level FlightAware Approximate
02:18PM 47.4666 -117.8557 90° East  Level FlightAware Approximate
02:19PM 47.4663 -117.7384 90° East  Level FlightAware Approximate
02:20PM 47.4660 -117.6211 90° East  Level FlightAware Approximate
02:21PM 47.4655 -117.5037 90° East  Level FlightAware Approximate
02:22PM 47.4648 -117.3708 90° East  Level FlightAware Approximate
02:23PM 47.4640 -117.2380 90° East  Level FlightAware Approximate
02:24PM 47.4630 -117.1051 91° East  Level FlightAware Approximate
02:25PM 47.4619 -116.9722 91° East  Level FlightAware Approximate
02:26PM 47.4606 -116.8393 91° East  Level FlightAware Approximate
02:27PM 47.4591 -116.7065 91° East  Level FlightAware Approximate
02:28PM 47.4575 -116.5736 91° East  Level FlightAware Approximate
02:29PM 47.4569 -116.4419 90° East  Level FlightAware Approximate
02:30PM 47.4562 -116.3093 90° East  Level FlightAware Approximate
02:31PM 47.4553 -116.1767 91° East  Level FlightAware Approximate
02:32PM 47.4542 -116.0410 91° East  Level FlightAware Approximate
02:33PM 47.4530 -115.9054 91° East  Level FlightAware Approximate
02:34PM 47.4516 -115.7698 91° East  Level FlightAware Approximate
02:35PM 47.4500 -115.6341 91° East  Level FlightAware Approximate
02:36PM 47.4173 -115.5073 111° Southeast  Level FlightAware Approximate
02:37PM 47.3843 -115.3809 111° Southeast  Level FlightAware Approximate
02:38PM 47.3515 -115.2558 111° Southeast  Level FlightAware Approximate
02:39PM 47.3200 -115.1298 110° East  Level FlightAware Approximate
02:40PM 47.2854 -115.0061 116° Southeast  Level FlightAware Approximate
02:41PM 47.2607 -114.8782 112° Southeast  Level FlightAware Approximate
02:42PM 47.2269 -114.7540 112° Southeast  Level FlightAware Approximate
02:43PM 47.1912 -114.6312 110° East  Level FlightAware Approximate
02:44PM 47.1548 -114.5096 126° Southeast  Level FlightAware Approximate
02:45PM 47.1010 -114.4020 126° Southeast  Level FlightAware Approximate
02:46PM 47.0437 -114.2986 129° Southeast  Level FlightAware Approximate
02:47PM 46.9787 -114.2075 126° Southeast  Level FlightAware Approximate
02:48PM 46.9218 -114.1051 146° Southeast  Level FlightAware Approximate
02:49PM 46.9163 -114.0906 146° Southeast  Level Estimated
02:50PM 46.9163 -114.0906 146° Southeast  Level Estimated
02:51PM 46.9163 -114.0906 146° Southeast  Level Estimated
02:52PM 46.9163 -114.0906 146° Southeast  Level Estimated
02:53PM 46.9163 -114.0906 146° Southeast  Level Estimated
02:54PM 46.9163 -114.0906 146° Southeast  Level Estimated
02:55PM 46.9163 -114.0906 146° Southeast  Level Estimated